Time;durP1;ratioP1;P1;durP2;ratioP2;P2;SDS_P1;SDS_P2;PMS_P1;PMS_P2;Temp;Humidity;BMP_temperature;BMP_pressure;BME280_temperature;BME280_humidity;BME280_pressure;Samples;Min_cycle;Max_cycle;Signal;HPM_P1;HPM_P2
2022/05/05 00:01:57;;;;;;;7.33;6.40;;;;;;;16.71;59.48;99256.44;4173535;28;20500;-32
2022/05/05 00:03:59;;;;;;;7.47;6.33;;;;;;;16.05;62.10;99357.41;4173810;28;20693;-31
2022/05/05 00:06:01;;;;;;;6.83;6.13;;;;;;;16.18;61.65;99327.91;4174312;28;20243;-30
2022/05/05 00:08:03;;;;;;;7.17;5.90;;;;;;;16.03;61.91;99334.47;4169743;28;20224;-30
2022/05/05 00:14:23;;;;;;;7.37;6.33;;;;;;;16.33;60.93;99311.59;4173821;28;20746;-32
2022/05/05 00:14:47;;;;;;;7.97;5.83;;;;;;;16.45;60.67;99289.47;4159441;28;20244;-33
2022/05/05 00:16:53;;;;;;;6.47;5.87;;;;;;;16.19;61.55;99342.13;4166109;28;20761;-32
2022/05/05 00:18:54;;;;;;;8.07;6.60;;;;;;;15.87;62.30;99351.78;4158882;28;20233;-33
2022/05/05 00:20:56;;;;;;;6.93;6.23;;;;;;;16.07;61.83;99341.91;4175178;28;20274;-34
2022/05/05 00:22:58;;;;;;;7.60;6.53;;;;;;;15.74;62.76;99372.19;4169340;28;20270;-36
2022/05/05 00:24:59;;;;;;;7.50;6.30;;;;;;;16.23;61.26;99315.72;4177050;28;20723;-30
2022/05/05 00:27:01;;;;;;;8.43;6.70;;;;;;;16.32;60.74;99301.91;4176128;28;20831;-34
2022/05/05 00:29:03;;;;;;;8.77;7.53;;;;;;;16.58;60.40;99280.63;4168438;28;20240;-30
2022/05/05 00:31:05;;;;;;;8.33;7.43;;;;;;;16.30;61.01;99297.75;4168957;28;20244;-34
2022/05/05 00:33:07;;;;;;;8.93;7.67;;;;;;;15.31;64.76;99420.63;4173130;28;20751;-32
2022/05/05 00:35:08;;;;;;;8.13;7.33;;;;;;;16.44;61.34;99296.72;4176957;28;20239;-31
2022/05/05 00:37:10;;;;;;;9.10;8.00;;;;;;;15.75;63.44;99375.69;4176862;28;20374;-34
2022/05/05 00:39:12;;;;;;;8.33;7.47;;;;;;;15.30;64.61;99400.22;4176402;28;20772;-34
2022/05/05 00:41:14;;;;;;;10.63;8.00;;;;;;;15.05;65.49;99423.97;4178345;28;20794;-34
2022/05/05 00:43:16;;;;;;;9.53;7.60;;;;;;;15.39;65.34;99406.25;4173805;28;20236;-32
2022/05/05 00:45:18;;;;;;;8.80;7.93;;;;;;;16.05;62.46;99313.66;4171794;28;20251;-31
2022/05/05 00:47:20;;;;;;;9.20;8.30;;;;;;;16.37;62.19;99293.22;4175273;28;20293;-33
2022/05/05 00:49:21;;;;;;;10.50;8.10;;;;;;;16.14;62.54;99318.59;4176167;28;20262;-36
2022/05/05 00:51:24;;;;;;;9.97;8.57;;;;;;;15.98;63.19;99332.44;4175982;28;20240;-35
2022/05/05 00:53:26;;;;;;;9.10;8.20;;;;;;;15.67;63.89;99363.28;4175471;28;20234;-34
2022/05/05 00:55:32;;;;;;;12.77;8.93;;;;;;;15.56;64.79;99385.28;4176534;28;20281;-31
2022/05/05 00:57:36;;;;;;;8.77;7.87;;;;;;;15.16;65.73;99419.94;4175677;28;20307;-33
2022/05/05 00:59:38;;;;;;;8.53;7.63;;;;;;;15.59;64.55;99360.75;4173501;28;20282;-31
2022/05/05 01:01:40;;;;;;;11.33;8.60;;;;;;;15.77;63.62;99339.59;4168784;28;20228;-33
2022/05/05 01:03:42;;;;;;;9.07;8.17;;;;;;;16.26;62.50;99301.91;4175028;28;20256;-32
2022/05/05 01:05:44;;;;;;;9.60;8.70;;;;;;;15.38;65.33;99397.38;4175905;28;20240;-32
2022/05/05 01:07:47;;;;;;;10.43;8.47;;;;;;;15.65;64.66;99372.56;4158006;28;20735;-32
2022/05/05 01:09:49;;;;;;;9.87;8.97;;;;;;;15.50;64.97;99383.41;4175907;28;20296;-32
2022/05/05 01:11:52;;;;;;;11.50;10.07;;;;;;;15.54;64.73;99381.97;4175811;28;20232;-31
2022/05/05 01:13:53;;;;;;;13.33;10.23;;;;;;;15.42;65.29;99393.28;4158134;28;20596;-33
2022/05/05 01:15:56;;;;;;;10.50;9.50;;;;;;;15.96;64.06;99323.75;4176387;28;20370;-35
2022/05/05 01:17:58;;;;;;;11.87;10.67;;;;;;;15.12;66.30;99398.06;4175201;28;20235;-32
2022/05/05 01:20:13;;;;;;;12.37;10.77;;;;;;;15.42;65.95;99377.19;4172184;28;20232;-33
2022/05/05 01:22:15;;;;;;;11.63;10.53;;;;;;;15.77;64.64;99331.56;4169049;28;20234;-31
2022/05/05 01:24:17;;;;;;;11.00;10.00;;;;;;;16.09;63.56;99296.94;4160948;28;20306;-31
2022/05/05 01:28:43;;;;;;;11.80;10.60;;;;;;;15.76;64.59;99339.78;4170659;28;20274;-33
2022/05/05 01:30:46;;;;;;;11.37;10.27;;;;;;;15.39;65.98;99396.34;4157576;28;20259;-34
2022/05/05 01:32:48;;;;;;;10.70;9.67;;;;;;;13.56;70.84;99451.28;4172822;28;20306;-33
2022/05/05 01:34:49;;;;;;;9.00;8.10;;;;;;;14.92;67.18;99389.91;4175847;28;20232;-34
2022/05/05 01:36:51;;;;;;;8.27;7.47;;;;;;;14.06;70.23;99486.25;4174771;28;20243;-33
2022/05/05 01:38:53;;;;;;;9.50;8.30;;;;;;;14.82;67.28;99405.50;4175840;28;20237;-32
2022/05/05 01:40:55;;;;;;;8.13;7.33;;;;;;;15.84;64.86;99296.72;4172459;28;20676;-33
2022/05/05 01:42:56;;;;;;;9.00;8.10;;;;;;;16.06;63.92;99275.06;4172150;28;20504;-33
2022/05/05 01:44:58;;;;;;;10.17;8.83;;;;;;;15.87;64.36;99293.63;4161401;28;20586;-35
2022/05/05 01:47:00;;;;;;;9.53;8.40;;;;;;;16.19;63.33;99265.16;4155700;28;20294;-34
2022/05/05 01:49:01;;;;;;;9.27;8.37;;;;;;;15.29;66.50;99384.34;4166460;28;20232;-31
2022/05/05 01:51:04;;;;;;;8.73;7.83;;;;;;;15.89;64.22;99291.56;4172266;28;20758;-32
2022/05/05 01:53:06;;;;;;;9.77;8.20;;;;;;;14.96;66.80;99407.22;4166347;28;20251;-36
2022/05/05 01:55:09;;;;;;;8.30;7.50;;;;;;;13.65;70.01;99446.66;4157780;28;20240;-34
2022/05/05 01:57:10;;;;;;;8.77;7.70;;;;;;;13.64;70.74;99477.91;4165536;28;20247;-35
2022/05/05 01:59:12;;;;;;;9.37;8.47;;;;;;;13.63;70.58;99470.06;4175021;28;20247;-31
2022/05/05 02:01:14;;;;;;;8.57;7.70;;;;;;;12.48;75.06;99496.81;4167254;28;20251;-32
2022/05/05 02:03:16;;;;;;;10.30;8.07;;;;;;;12.50;75.79;99541.16;4164170;28;20251;-34
2022/05/05 02:05:18;;;;;;;9.33;8.43;;;;;;;13.51;73.16;99469.72;4166016;28;20244;-34
2022/05/05 02:07:20;;;;;;;8.90;8.00;;;;;;;15.05;67.17;99298.97;4174773;28;20798;-31
2022/05/05 02:09:22;;;;;;;8.90;8.00;;;;;;;14.96;67.28;99331.44;4174823;28;20228;-34
2022/05/05 02:11:23;;;;;;;11.13;7.93;;;;;;;14.92;67.28;99343.56;4174494;28;20236;-36
2022/05/05 02:13:25;;;;;;;10.27;8.23;;;;;;;15.49;65.22;99277.25;4174730;28;20236;-34
2022/05/05 02:15:28;;;;;;;9.77;8.77;;;;;;;14.66;67.54;99377.13;4175673;28;20235;-32
2022/05/05 02:17:29;;;;;;;11.53;8.57;;;;;;;12.79;73.63;99501.28;4154640;28;20768;-30
2022/05/05 02:19:31;;;;;;;8.23;7.43;;;;;;;13.00;75.06;99534.47;4172710;28;20689;-31
2022/05/05 02:21:33;;;;;;;9.23;8.23;;;;;;;14.01;71.13;99414.63;4174677;28;20289;-33
2022/05/05 02:23:35;;;;;;;10.03;7.90;;;;;;;14.57;68.82;99357.72;4174769;28;20362;-33
2022/05/05 02:25:37;;;;;;;8.70;7.80;;;;;;;14.53;68.68;99364.50;4174646;28;20689;-37
2022/05/05 02:27:52;;;;;;;9.17;8.27;;;;;;;14.56;68.44;99369.44;4175016;28;20236;-31
2022/05/05 02:29:53;;;;;;;8.97;8.07;;;;;;;13.85;71.18;99452.28;4172206;28;20672;-30
2022/05/05 02:31:56;;;;;;;9.27;8.30;;;;;;;14.28;69.51;99394.34;4174929;28;20244;-34
2022/05/05 02:34:08;;;;;;;9.47;8.57;;;;;;;14.76;68.48;99353.56;4174426;28;20235;-32
2022/05/05 02:38:50;;;;;;;8.77;7.97;;;;;;;14.51;68.86;99379.91;4106542;28;20810;-33
2022/05/05 02:40:52;;;;;;;9.50;8.57;;;;;;;15.31;66.30;99297.41;4106444;28;20909;-32
2022/05/05 02:42:55;;;;;;;12.47;8.40;;;;;;;15.69;65.11;99254.00;4106996;28;20250;-32
2022/05/05 02:44:57;;;;;;;9.67;8.73;;;;;;;15.60;64.28;99263.25;4161161;28;20240;-35
2022/05/05 02:47:00;;;;;;;10.13;8.47;;;;;;;15.37;66.04;99295.75;4149313;28;20316;-33
2022/05/05 02:49:02;;;;;;;9.47;8.53;;;;;;;13.80;70.16;99452.00;4158643;28;20264;-30
2022/05/05 02:51:04;;;;;;;9.13;8.23;;;;;;;12.63;74.83;99522.72;4161861;28;20301;-30
2022/05/05 02:54:47;;;;;;;8.87;8.00;;;;;;;12.16;76.35;99540.50;4174527;28;20256;-37
2022/05/05 02:55:27;;;;;;;9.07;8.17;;;;;;;13.13;74.01;99480.47;4175187;28;20251;-35
2022/05/05 02:57:29;;;;;;;9.73;8.30;;;;;;;13.89;71.14;99384.91;4173821;28;20285;-32
2022/05/05 02:59:30;;;;;;;9.43;8.53;;;;;;;14.27;70.07;99347.19;4175422;28;20282;-33
2022/05/05 03:01:32;;;;;;;9.00;8.10;;;;;;;15.21;66.56;99248.75;4174916;28;20243;-32
2022/05/05 03:03:37;;;;;;;11.13;8.90;;;;;;;15.31;65.17;99249.19;4156010;28;20772;-32
2022/05/05 03:05:39;;;;;;;10.20;8.17;;;;;;;14.66;67.50;99351.22;4174903;28;20239;-35
2022/05/05 03:07:41;;;;;;;9.50;8.43;;;;;;;14.57;68.23;99365.75;4174580;28;20232;-30
2022/05/05 03:09:43;;;;;;;9.87;8.87;;;;;;;15.01;66.38;99312.94;4171896;28;20231;-34
2022/05/05 03:11:45;;;;;;;9.00;8.20;;;;;;;13.52;69.58;99424.13;4174925;28;20236;-37
2022/05/05 03:13:47;;;;;;;10.27;8.57;;;;;;;11.77;77.59;99521.84;4170889;28;20663;-33
2022/05/05 03:15:49;;;;;;;9.53;8.23;;;;;;;12.56;74.68;99519.94;4173185;28;20693;-31
2022/05/05 03:17:50;;;;;;;8.97;8.07;;;;;;;12.33;75.74;99549.25;4174136;28;20232;-30
2022/05/05 03:19:52;;;;;;;10.00;8.47;;;;;;;12.69;75.00;99521.19;4174954;28;20228;-29
2022/05/05 03:21:55;;;;;;;9.10;8.20;;;;;;;13.52;72.57;99426.78;4174147;28;20282;-36
2022/05/05 03:23:57;;;;;;;8.90;8.00;;;;;;;12.84;73.65;99492.69;4174237;28;20236;-34
2022/05/05 03:25:59;;;;;;;9.07;8.10;;;;;;;13.53;72.21;99427.59;4174401;28;20236;-31
2022/05/05 03:28:01;;;;;;;9.47;8.20;;;;;;;11.80;77.13;99533.00;4174167;28;20266;-34
2022/05/05 03:30:03;;;;;;;8.90;8.00;;;;;;;12.17;76.38;99552.84;4173466;28;20668;-36
2022/05/05 03:32:06;;;;;;;9.33;8.33;;;;;;;13.81;71.16;99379.66;4173961;28;20228;-30
2022/05/05 03:34:08;;;;;;;9.77;8.47;;;;;;;14.40;68.64;99337.66;4175795;28;20231;-31
2022/05/05 03:36:09;;;;;;;10.43;8.40;;;;;;;14.79;66.80;99299.66;4173435;28;20244;-32
2022/05/05 03:38:11;;;;;;;9.37;8.33;;;;;;;14.31;68.36;99374.41;4174775;28;20228;-33
2022/05/05 03:40:13;;;;;;;9.63;8.47;;;;;;;15.08;66.24;99281.66;4155518;28;20286;-36
2022/05/05 03:42:14;;;;;;;9.47;8.57;;;;;;;15.12;66.48;99282.09;4174192;28;20279;-29
2022/05/05 03:44:16;;;;;;;9.53;8.63;;;;;;;15.39;64.89;99270.44;4173857;28;20710;-31
2022/05/05 03:46:18;;;;;;;10.13;8.70;;;;;;;14.67;66.87;99362.75;4177549;28;20637;-32
2022/05/05 03:48:20;;;;;;;10.10;9.00;;;;;;;15.14;65.43;99318.34;4176661;28;20606;-30
2022/05/05 03:50:22;;;;;;;9.33;8.43;;;;;;;15.45;64.34;99296.41;4177792;28;20657;-29
2022/05/05 03:52:24;;;;;;;11.77;9.27;;;;;;;14.66;66.52;99369.97;4161968;28;20240;-34
2022/05/05 03:54:26;;;;;;;10.80;9.03;;;;;;;15.64;64.02;99280.59;4145054;28;20733;-29
2022/05/05 03:56:28;;;;;;;9.40;8.50;;;;;;;14.92;66.41;99359.63;4176763;28;20240;-33
2022/05/05 03:58:30;;;;;;;10.27;9.13;;;;;;;14.83;66.23;99362.47;4176734;28;20236;-31
2022/05/05 04:00:32;;;;;;;9.90;8.57;;;;;;;15.71;63.61;99276.09;4176127;28;20591;-32
2022/05/05 04:02:33;;;;;;;10.30;9.03;;;;;;;15.37;64.56;99315.38;4177216;28;20666;-34
2022/05/05 04:04:35;;;;;;;9.57;8.37;;;;;;;15.33;64.66;99316.78;4175692;28;20763;-33
2022/05/05 04:06:37;;;;;;;10.90;9.43;;;;;;;14.84;66.43;99388.22;4176734;28;20582;-35
2022/05/05 04:08:39;;;;;;;9.30;8.17;;;;;;;14.59;67.18;99403.84;4177427;28;20236;-32
2022/05/05 04:10:40;;;;;;;12.63;8.80;;;;;;;15.05;65.94;99349.84;4175845;28;20778;-33
2022/05/05 04:12:42;;;;;;;9.87;8.87;;;;;;;15.63;63.47;99289.69;4176805;28;20257;-39
2022/05/05 04:14:44;;;;;;;9.80;8.80;;;;;;;15.84;62.51;99274.44;4176815;28;20286;-37
2022/05/05 04:16:45;;;;;;;9.53;8.53;;;;;;;15.60;63.55;99303.47;4177315;28;20300;-29
2022/05/05 04:18:47;;;;;;;9.90;8.90;;;;;;;14.99;65.45;99369.34;4171179;28;20293;-29
2022/05/05 04:20:49;;;;;;;9.47;8.57;;;;;;;14.51;66.92;99434.25;4176576;28;20270;-32
2022/05/05 04:22:51;;;;;;;10.97;8.70;;;;;;;15.01;65.87;99378.00;4176965;28;20243;-30
2022/05/05 04:24:52;;;;;;;10.90;9.13;;;;;;;15.15;64.80;99348.63;4176889;28;20264;-33
2022/05/05 04:26:54;;;;;;;10.53;9.00;;;;;;;15.43;64.00;99329.78;4176872;28;20252;-30
2022/05/05 04:28:59;;;;;;;9.77;8.77;;;;;;;14.70;66.77;99424.72;4177225;28;20231;-34
2022/05/05 04:31:01;;;;;;;9.37;8.47;;;;;;;15.51;64.19;99334.97;4175466;28;20309;-36
2022/05/05 04:33:03;;;;;;;11.87;8.77;;;;;;;15.26;64.85;99366.81;4177041;28;20235;-35
2022/05/05 04:35:05;;;;;;;10.03;8.57;;;;;;;15.06;65.21;99380.94;4177158;28;20239;-33
2022/05/05 04:37:07;;;;;;;11.63;9.33;;;;;;;15.10;65.51;99385.88;4176399;28;20240;-36
2022/05/05 04:39:09;;;;;;;10.63;8.20;;;;;;;13.92;68.27;99496.78;4176290;28;20289;-34
2022/05/05 04:41:11;;;;;;;10.93;8.20;;;;;;;14.15;68.43;99482.44;4175810;28;20244;-33
2022/05/05 04:43:12;;;;;;;10.17;8.17;;;;;;;14.19;67.78;99470.38;4176121;28;20240;-34
2022/05/05 04:45:14;;;;;;;9.60;8.60;;;;;;;14.79;65.79;99396.00;4176763;28;20248;-34
2022/05/05 04:47:17;;;;;;;12.03;8.47;;;;;;;14.31;67.36;99468.84;4178065;28;20255;-34
2022/05/05 04:49:19;;;;;;;9.20;8.23;;;;;;;14.17;67.35;99472.38;4176431;28;20293;-33
2022/05/05 04:51:20;;;;;;;8.67;7.73;;;;;;;15.33;64.96;99361.50;4175802;28;20289;-34
2022/05/05 04:53:22;;;;;;;9.17;8.27;;;;;;;15.67;63.80;99330.31;4174776;28;20236;-33
2022/05/05 04:55:24;;;;;;;10.57;8.80;;;;;;;15.54;64.24;99347.13;4175990;28;20762;-32
2022/05/05 04:57:26;;;;;;;11.87;8.83;;;;;;;15.52;63.87;99333.94;4176117;28;20774;-34
2022/05/05 05:02:29;;;;;;;9.33;8.33;;;;;;;13.99;69.93;99480.84;4188387;28;20650;-62
2022/05/05 05:04:32;;;;;;;9.07;8.17;;;;;;;13.14;73.00;99560.38;4167134;28;20632;-62
2022/05/05 05:06:34;;;;;;;10.37;8.53;;;;;;;13.89;69.92;99469.63;4165821;28;20231;-62
2022/05/05 05:08:36;;;;;;;9.77;8.87;;;;;;;13.30;72.51;99534.53;4172616;28;20228;-62
2022/05/05 05:10:37;;;;;;;9.33;8.33;;;;;;;12.96;74.36;99562.53;4172961;28;20629;-62
2022/05/05 05:12:39;;;;;;;8.83;7.93;;;;;;;13.59;70.54;99469.63;4179696;28;20249;-62
2022/05/05 05:14:41;;;;;;;9.33;8.43;;;;;;;13.78;70.11;99473.56;4172843;28;20236;-62
2022/05/05 05:16:42;;;;;;;11.43;8.43;;;;;;;14.20;68.89;99439.09;4173112;28;20686;-62
2022/05/05 05:18:44;;;;;;;9.60;8.60;;;;;;;15.25;65.32;99357.13;4172615;28;20239;-62
2022/05/05 05:20:46;;;;;;;9.10;8.10;;;;;;;15.38;64.68;99348.31;4175167;28;20312;-62
2022/05/05 05:22:48;;;;;;;9.27;8.27;;;;;;;14.24;68.44;99461.75;4177556;28;20245;-62
2022/05/05 05:24:50;;;;;;;9.00;8.20;;;;;;;14.88;67.21;99407.38;4166841;28;20293;-62
2022/05/05 05:26:52;;;;;;;11.23;8.27;;;;;;;14.84;67.10;99398.09;4177291;28;20803;-62
2022/05/05 05:28:54;;;;;;;9.70;8.70;;;;;;;15.16;65.99;99375.22;4172351;28;20227;-62
2022/05/05 05:30:55;;;;;;;10.13;9.00;;;;;;;15.07;65.94;99377.22;4174467;28;20235;-62
2022/05/05 05:32:57;;;;;;;11.53;10.33;;;;;;;15.21;66.27;99386.16;4172842;28;20666;-64
2022/05/05 05:34:59;;;;;;;14.87;9.13;;;;;;;15.54;65.14;99355.16;4175747;28;20567;-62
2022/05/05 05:37:00;;;;;;;10.10;9.00;;;;;;;15.74;64.25;99350.75;4171534;28;20246;-62
2022/05/05 05:39:02;;;;;;;9.80;8.80;;;;;;;14.90;66.04;99408.03;4173514;28;20664;-62
2022/05/05 05:41:04;;;;;;;9.70;8.70;;;;;;;14.58;67.86;99452.19;4172388;28;20240;-62
2022/05/05 05:43:06;;;;;;;8.67;7.77;;;;;;;12.69;73.90;99595.88;4173803;28;20297;-63
2022/05/05 05:45:08;;;;;;;9.50;8.60;;;;;;;12.89;74.18;99614.94;4171831;28;20240;-60
2022/05/05 05:47:12;;;;;;;9.93;8.77;;;;;;;14.65;69.06;99427.16;4168245;28;20361;-60
2022/05/05 05:49:13;;;;;;;9.73;8.73;;;;;;;15.23;66.84;99377.94;4170985;28;20224;-60
2022/05/05 05:51:15;;;;;;;9.67;8.67;;;;;;;13.82;69.66;99516.75;4169627;28;20621;-60
2022/05/05 05:53:17;;;;;;;9.50;8.47;;;;;;;14.96;67.90;99401.88;4171499;28;20301;-61
2022/05/05 05:55:18;;;;;;;10.90;8.10;;;;;;;14.29;69.56;99470.03;4172151;28;20243;-61
2022/05/05 05:57:20;;;;;;;9.47;8.30;;;;;;;15.51;65.67;99367.13;4171987;28;20232;-61
2022/05/05 05:59:22;;;;;;;10.63;8.77;;;;;;;16.01;63.87;99299.81;4174457;28;20236;-60
2022/05/05 06:03:53;;;;;;;10.50;9.07;;;;;;;16.17;63.33;99310.16;4171613;28;20236;-61
2022/05/05 06:03:54;;;;;;;10.53;9.43;;;;;;;16.19;63.22;99318.81;4169454;28;20262;-61
2022/05/05 06:05:56;;;;;;;10.50;8.90;;;;;;;15.73;64.54;99356.31;4171929;28;20231;-61
2022/05/05 06:07:59;;;;;;;10.33;8.57;;;;;;;15.45;65.77;99405.44;4173671;28;20239;-61
2022/05/05 06:10:01;;;;;;;9.80;8.90;;;;;;;16.05;63.89;99338.63;4170946;28;20290;-61
2022/05/05 06:12:03;;;;;;;10.23;9.13;;;;;;;15.37;65.95;99394.88;4173647;28;20255;-61
2022/05/05 06:14:05;;;;;;;9.93;8.87;;;;;;;15.42;65.95;99406.69;4146151;28;20245;-60
2022/05/05 06:16:09;;;;;;;10.20;8.50;;;;;;;15.20;66.57;99421.16;4172647;28;20236;-61
2022/05/05 06:18:11;;;;;;;10.10;9.10;;;;;;;15.17;67.16;99440.31;4143962;28;20661;-62
2022/05/05 06:20:14;;;;;;;9.90;8.90;;;;;;;15.66;65.89;99375.06;4143406;28;20229;-62
2022/05/05 06:22:15;;;;;;;10.70;8.90;;;;;;;15.71;65.43;99359.19;4140899;28;20656;-61
2022/05/05 06:24:17;;;;;;;9.80;8.80;;;;;;;14.62;68.67;99491.75;4145466;28;20241;-61
2022/05/05 06:26:19;;;;;;;11.23;9.13;;;;;;;13.84;71.43;99557.50;4146620;28;20737;-61
2022/05/05 06:28:21;;;;;;;10.43;9.00;;;;;;;15.45;67.04;99394.72;4144240;28;20467;-61
2022/05/05 06:30:23;;;;;;;9.93;8.90;;;;;;;14.22;70.17;99530.66;4144434;28;20233;-61
2022/05/05 06:32:25;;;;;;;9.53;8.60;;;;;;;15.35;67.43;99423.72;4139096;28;20237;-58
2022/05/05 06:34:26;;;;;;;10.30;9.20;;;;;;;16.09;64.62;99347.91;4138843;28;20772;-61
2022/05/05 06:36:28;;;;;;;9.90;8.73;;;;;;;15.22;67.25;99422.66;4145716;28;20233;-61
2022/05/05 06:38:30;;;;;;;10.93;9.83;;;;;;;16.00;64.75;99359.88;4144505;28;20710;-61
2022/05/05 06:40:34;;;;;;;12.27;9.10;;;;;;;15.53;66.94;99423.22;4141036;28;20288;-61
2022/05/05 06:42:36;;;;;;;10.73;9.60;;;;;;;16.39;63.99;99347.50;4139032;28;20241;-61
2022/05/05 06:44:37;;;;;;;11.50;9.97;;;;;;;16.67;62.40;99306.19;4146344;28;20294;-61
2022/05/05 06:46:39;;;;;;;11.90;9.73;;;;;;;15.81;65.90;99402.53;4143462;28;20229;-60
2022/05/05 06:48:41;;;;;;;11.43;10.10;;;;;;;16.06;64.32;99367.06;4145875;28;20592;-61
2022/05/05 06:50:43;;;;;;;11.17;9.87;;;;;;;15.95;65.33;99391.81;4155576;28;20237;-61
2022/05/05 06:52:45;;;;;;;12.87;10.47;;;;;;;16.77;61.88;99308.44;4136086;28;20241;-61
2022/05/05 06:54:46;;;;;;;11.07;9.93;;;;;;;16.15;63.76;99371.22;4142241;28;20760;-61
2022/05/05 06:56:48;;;;;;;10.10;9.10;;;;;;;16.13;65.46;99384.03;4139930;28;20266;-61
2022/05/05 06:58:50;;;;;;;11.43;10.33;;;;;;;15.67;66.95;99442.88;4142188;28;20237;-61
2022/05/05 07:03:13;;;;;;;11.97;10.77;;;;;;;16.09;65.40;99406.09;4153015;28;20239;-61
2022/05/05 07:05:23;;;;;;;13.13;10.93;;;;;;;15.44;67.33;99450.16;4149934;28;20303;-61
2022/05/05 07:07:26;;;;;;;13.43;10.73;;;;;;;16.02;65.85;99406.06;4141415;28;20237;-61
2022/05/05 07:11:48;;;;;;;11.77;10.57;;;;;;;15.46;67.66;99458.00;4143807;28;20251;-63
2022/05/05 07:13:50;;;;;;;13.90;11.60;;;;;;;15.55;67.09;99456.81;4143000;28;20241;-61
2022/05/05 07:15:52;;;;;;;11.57;10.43;;;;;;;15.20;68.38;99517.59;4147176;28;20787;-61
2022/05/05 07:17:53;;;;;;;13.10;11.27;;;;;;;15.70;66.19;99442.47;4142908;28;20233;-61
2022/05/05 07:19:55;;;;;;;12.13;10.87;;;;;;;15.98;66.03;99421.75;4142829;28;20241;-61
2022/05/05 07:21:57;;;;;;;12.77;11.47;;;;;;;16.70;63.21;99338.00;4144490;28;20246;-60
2022/05/05 07:23:59;;;;;;;12.93;11.43;;;;;;;16.70;62.77;99344.22;4142165;28;20233;-61
2022/05/05 07:26:00;;;;;;;13.20;11.70;;;;;;;16.88;62.38;99345.41;4142402;28;20245;-60
2022/05/05 07:28:03;;;;;;;13.70;11.20;;;;;;;17.20;60.90;99332.09;4143211;28;20268;-60
2022/05/05 07:30:05;;;;;;;12.90;11.13;;;;;;;16.94;62.31;99349.94;4143170;28;20225;-59
2022/05/05 07:32:08;;;;;;;13.80;12.23;;;;;;;16.86;62.50;99377.84;4138981;28;20218;-60
2022/05/05 07:34:12;;;;;;;15.50;12.53;;;;;;;17.13;61.36;99355.44;4143307;28;20320;-61
2022/05/05 07:36:13;;;;;;;15.90;12.20;;;;;;;16.98;59.83;99342.28;4147530;28;20225;-61
2022/05/05 07:38:15;;;;;;;15.03;11.63;;;;;;;17.09;59.66;99338.91;4143294;28;20594;-60
2022/05/05 07:40:22;;;;;;;14.93;12.50;;;;;;;17.00;59.52;99340.22;4146374;28;20729;-60
2022/05/05 07:42:23;;;;;;;16.67;12.83;;;;;;;16.57;60.28;99424.75;4143669;28;20279;-60
2022/05/05 07:44:25;;;;;;;16.47;13.30;;;;;;;16.41;61.43;99427.78;4139307;28;20717;-60
2022/05/05 07:46:28;;;;;;;13.77;12.00;;;;;;;16.71;60.81;99404.09;4144277;28;20730;-60
2022/05/05 07:48:29;;;;;;;17.53;13.00;;;;;;;16.44;61.22;99428.22;4148006;28;20658;-60
2022/05/05 07:50:31;;;;;;;15.60;12.43;;;;;;;15.38;65.43;99557.28;4145296;28;20710;-61
2022/05/05 07:52:33;;;;;;;15.93;12.47;;;;;;;16.22;61.92;99462.44;4145018;28;20233;-60
2022/05/05 07:54:35;;;;;;;15.70;14.03;;;;;;;16.13;61.77;99469.84;4142675;28;20248;-61
2022/05/05 07:56:36;;;;;;;15.03;13.07;;;;;;;16.10;61.91;99489.03;4143519;28;20224;-61
2022/05/05 07:58:38;;;;;;;16.10;12.63;;;;;;;16.11;62.16;99495.19;4143087;28;20237;-62
2022/05/05 08:00:39;;;;;;;17.23;13.00;;;;;;;15.88;63.13;99520.50;4142927;28;20659;-61
2022/05/05 08:02:41;;;;;;;14.33;12.63;;;;;;;15.93;62.75;99498.44;4142778;28;20730;-61
2022/05/05 08:04:43;;;;;;;14.37;12.87;;;;;;;16.13;62.28;99472.53;4143651;28;20291;-61
2022/05/05 08:06:45;;;;;;;16.30;12.90;;;;;;;15.96;63.80;99508.75;4140930;28;20233;-61
2022/05/05 08:08:47;;;;;;;16.17;13.83;;;;;;;16.22;63.23;99480.41;4146433;28;20244;-60
2022/05/05 08:10:53;;;;;;;14.90;12.67;;;;;;;16.63;61.71;99423.09;4143045;28;20237;-61
2022/05/05 08:12:55;;;;;;;15.60;13.50;;;;;;;15.69;65.00;99545.34;4169910;28;20235;-61
2022/05/05 08:14:57;;;;;;;16.27;13.00;;;;;;;15.93;64.69;99515.38;4142703;28;20236;-61
2022/05/05 08:16:59;;;;;;;16.13;14.07;;;;;;;16.10;63.34;99480.97;4145988;28;20721;-62
2022/05/05 08:19:00;;;;;;;16.20;13.50;;;;;;;16.05;63.23;99482.63;4144604;28;20233;-60
2022/05/05 08:21:02;;;;;;;17.57;13.40;;;;;;;15.79;64.67;99519.84;4141130;28;20237;-60
2022/05/05 08:23:04;;;;;;;16.03;12.90;;;;;;;16.06;63.72;99478.88;4138476;28;20690;-61
2022/05/05 08:29:47;;;;;;;22.03;13.53;;;;;;;16.85;61.64;99416.44;4142974;28;21454;-61
2022/05/05 08:31:49;;;;;;;18.70;14.60;;;;;;;16.52;62.31;99433.41;4137200;28;20840;-61
2022/05/05 08:33:50;;;;;;;16.63;13.50;;;;;;;16.81;61.36;99425.97;4140219;28;20569;-61
2022/05/05 08:35:53;;;;;;;19.27;14.57;;;;;;;16.71;61.03;99425.56;4139935;28;20298;-63
2022/05/05 08:37:55;;;;;;;16.73;14.27;;;;;;;16.21;60.41;99466.13;4135979;28;20562;-61
2022/05/05 08:39:57;;;;;;;16.23;13.83;;;;;;;15.17;64.88;99633.13;4141063;28;20319;-61
2022/05/05 08:42:04;;;;;;;16.53;13.40;;;;;;;14.92;63.99;99657.63;4142321;28;20281;-61
2022/05/05 08:44:07;;;;;;;18.03;14.57;;;;;;;15.71;61.84;99551.31;4137170;28;20371;-59
2022/05/05 08:46:13;;;;;;;18.40;14.87;;;;;;;14.37;65.70;99683.91;4135666;28;20291;-61
2022/05/05 08:48:16;;;;;;;22.23;14.23;;;;;;;15.10;62.81;99617.00;4138824;28;20706;-61
2022/05/05 08:50:19;;;;;;;18.00;14.07;;;;;;;15.18;62.76;99624.09;4134858;28;20658;-61
2022/05/05 08:52:24;;;;;;;18.20;14.60;;;;;;;15.13;63.65;99623.84;4140162;28;20277;-60
2022/05/05 08:54:28;;;;;;;18.40;14.53;;;;;;;14.78;63.74;99629.88;4141395;28;20241;-55
2022/05/05 08:56:30;;;;;;;17.03;15.23;;;;;;;14.53;65.54;99669.50;4138852;28;20759;-61
2022/05/05 08:58:31;;;;;;;18.47;14.30;;;;;;;14.88;64.48;99622.38;4139286;28;20723;-60
2022/05/05 09:00:33;;;;;;;18.23;15.17;;;;;;;14.59;65.62;99649.19;4139715;28;20232;-61
2022/05/05 09:02:35;;;;;;;18.53;14.97;;;;;;;14.91;65.01;99623.00;4139811;28;20325;-60
2022/05/05 09:04:36;;;;;;;19.70;16.20;;;;;;;15.63;63.37;99549.66;4139913;28;20241;-60
2022/05/05 09:06:46;;;;;;;19.67;16.80;;;;;;;15.61;63.43;99547.13;4141463;28;20226;-61
2022/05/05 09:08:48;;;;;;;18.60;15.80;;;;;;;15.30;64.08;99571.63;4138300;28;20249;-61
2022/05/05 09:10:51;;;;;;;23.43;16.83;;;;;;;14.04;68.40;99712.84;4140522;28;20237;-61
2022/05/05 09:13:00;;;;;;;20.27;16.40;;;;;;;14.91;66.16;99623.81;4136946;28;21609;-61
2022/05/05 09:15:09;;;;;;;21.67;15.43;;;;;;;15.10;66.31;99616.19;4139100;28;20233;-60
2022/05/05 09:17:13;;;;;;;22.17;16.40;;;;;;;15.74;63.27;99508.03;4141242;28;20798;-61
2022/05/05 09:19:18;;;;;;;23.90;17.10;;;;;;;15.34;64.84;99574.75;4138366;28;20685;-60
2022/05/05 09:21:34;;;;;;;20.17;16.10;;;;;;;14.92;67.28;99641.56;4136520;28;20268;-61
2022/05/05 09:26:05;;;;;;;18.57;16.47;;;;;;;15.06;66.92;99602.34;4136058;28;20339;-61
2022/05/05 09:28:18;;;;;;;21.67;16.37;;;;;;;14.98;66.23;99611.31;4137098;28;20222;-60
2022/05/05 09:30:20;;;;;;;20.17;14.60;;;;;;;15.54;65.09;99537.38;4134696;28;20276;-60
2022/05/05 09:32:30;;;;;;;19.90;16.23;;;;;;;15.40;64.37;99541.84;4141106;28;20225;-60
2022/05/05 09:34:31;;;;;;;20.57;17.03;;;;;;;14.77;67.33;99646.97;4136641;28;20237;-61
2022/05/05 09:36:33;;;;;;;20.47;15.77;;;;;;;15.03;65.88;99614.25;4137380;28;20268;-61
2022/05/05 09:38:48;;;;;;;19.23;15.83;;;;;;;14.79;67.31;99638.75;4140710;28;20228;-60
2022/05/05 09:41:03;;;;;;;19.67;15.87;;;;;;;15.61;64.41;99549.81;4138486;28;20406;-59
2022/05/05 09:43:09;;;;;;;21.67;17.13;;;;;;;15.36;65.63;99578.09;4137539;28;20268;-59
2022/05/05 09:45:21;;;;;;;20.57;16.43;;;;;;;14.69;67.26;99630.97;4142581;28;20278;-59
2022/05/05 09:47:23;;;;;;;17.80;15.60;;;;;;;15.01;66.18;99592.22;4148572;28;20283;-60
2022/05/05 09:49:24;;;;;;;19.87;15.60;;;;;;;15.44;64.85;99554.66;4141045;28;20229;-59
2022/05/05 09:51:26;;;;;;;20.87;16.20;;;;;;;15.30;65.23;99568.16;4142365;28;20225;-59
2022/05/05 09:58:12;;;;;;;18.80;16.37;;;;;;;14.33;68.05;99696.00;4140552;28;20226;-59
2022/05/05 10:04:59;;;;;;;21.23;15.17;;;;;;;15.43;65.18;99544.94;4140272;28;20859;-57